createdAt,value
2022-09-13T09:30:40.038Z,517.50
2022-09-13T09:31:35.978Z,534.38
2022-09-13T09:32:35.963Z,556.88
2022-09-13T09:33:35.984Z,624.38
2022-09-13T09:34:37.002Z,466.88
2022-09-13T09:35:38.637Z,455.63
2022-09-13T09:36:36.020Z,433.13
2022-09-13T09:37:36.043Z,393.75
2022-09-13T09:38:36.048Z,371.25
2022-09-13T09:39:36.065Z,388.13
2022-09-13T09:40:36.203Z,405.00
2022-09-13T09:41:36.101Z,331.88
2022-09-13T09:42:36.113Z,292.50
2022-09-13T09:43:36.123Z,303.75
2022-09-13T09:44:36.134Z,348.75
2022-09-13T09:45:36.157Z,388.13
2022-09-13T09:46:36.272Z,399.38
2022-09-13T09:47:36.178Z,382.50
2022-09-13T09:48:36.200Z,331.88
2022-09-13T09:49:36.211Z,292.50
2022-09-13T09:50:36.226Z,298.13
2022-09-13T09:51:36.239Z,315.00
2022-09-13T09:52:36.255Z,331.88
2022-09-13T09:53:37.345Z,337.50
2022-09-13T09:54:36.276Z,365.63
2022-09-13T09:55:36.287Z,225.00
2022-09-13T09:56:36.317Z,219.38
2022-09-13T09:57:36.313Z,213.75
2022-09-13T09:58:36.328Z,196.88
2022-09-13T09:59:36.340Z,202.50
2022-09-13T10:00:36.354Z,219.38
2022-09-13T10:01:36.412Z,225.00
2022-09-13T10:02:36.521Z,213.75
2022-09-13T10:03:36.400Z,196.88
2022-09-13T10:04:36.406Z,163.13
2022-09-13T10:05:36.419Z,129.38
2022-09-13T10:06:36.443Z,112.50
2022-09-13T10:07:36.444Z,101.25
2022-09-13T10:08:36.456Z,112.50
2022-09-13T10:09:36.478Z,123.75
2022-09-13T10:13:17.378Z,225.00
2022-09-13T10:14:17.400Z,298.13
2022-09-13T10:15:17.467Z,360.00
2022-09-13T10:16:17.451Z,483.75
2022-09-13T10:17:17.425Z,663.75
2022-09-13T10:18:40.372Z,950.63
2022-09-13T10:19:17.451Z,832.50
2022-09-13T10:20:17.471Z,787.50
2022-09-13T10:21:17.481Z,534.38
2022-09-13T10:22:17.495Z,489.38
2022-09-13T10:23:17.508Z,562.50
2022-09-13T10:24:17.522Z,821.25
2022-09-13T10:29:56.785Z,1051.88
2022-09-13T10:30:56.843Z,2098.13
2022-09-13T10:31:56.811Z,2205.00
2022-09-13T10:32:56.816Z,849.38
2022-09-13T10:33:56.853Z,1023.75
2022-09-13T10:34:56.852Z,1558.13
2022-09-13T10:35:56.861Z,1411.88
2022-09-13T10:36:56.882Z,956.25
2022-09-13T10:37:56.898Z,1063.13
2022-09-13T10:38:56.913Z,911.25
2022-09-13T10:39:57.040Z,1158.75
2022-09-13T10:40:56.939Z,922.50
2022-09-13T10:41:56.961Z,630.00
2022-09-13T10:42:56.971Z,613.13
2022-09-13T10:43:56.986Z,748.13
2022-09-13T10:44:57.012Z,2244.38
2022-09-13T10:55:16.310Z,1012.50
2022-09-13T10:56:16.220Z,1586.25
2022-09-13T15:24:07.650Z,309.38
2022-09-13T15:25:07.644Z,337.50
2022-09-13T15:26:07.658Z,320.63
2022-09-13T15:27:07.668Z,303.75
2022-09-13T15:28:07.679Z,298.13
2022-09-13T15:29:07.696Z,258.75
2022-09-13T15:30:07.707Z,225.00
2022-09-13T15:31:07.790Z,343.13
2022-09-13T15:32:07.736Z,365.63
2022-09-13T15:33:07.748Z,348.75
2022-09-13T15:34:07.765Z,292.50
2022-09-13T15:35:07.782Z,270.00
2022-09-13T15:36:07.799Z,298.13
2022-09-13T15:37:07.804Z,376.88
2022-09-13T15:38:07.819Z,326.25
2022-09-13T15:39:07.834Z,337.50
2022-09-13T15:40:07.953Z,326.25
2022-09-13T15:41:07.868Z,331.88
2022-09-13T15:42:07.875Z,315.00
2022-09-13T15:43:07.889Z,292.50
2022-09-13T15:44:07.907Z,281.25
2022-09-13T15:45:07.934Z,298.13
2022-09-13T15:46:07.929Z,309.38
2022-09-13T15:47:07.948Z,292.50
2022-09-13T15:48:07.966Z,264.38
2022-09-13T15:49:07.983Z,241.88
2022-09-13T15:50:07.995Z,286.88
2022-09-13T15:51:07.999Z,309.38
2022-09-13T15:52:08.022Z,315.00
2022-09-13T15:53:08.101Z,298.13
2022-09-13T15:54:08.043Z,298.13
2022-09-13T15:55:08.053Z,298.13
2022-09-13T15:56:08.102Z,292.50
2022-09-13T17:10:20.005Z,33.75
2022-09-13T17:11:19.974Z,28.13
2022-09-13T17:12:19.986Z,28.13
2022-09-13T17:13:20.003Z,28.13
2022-09-13T17:14:20.004Z,22.50
2022-09-13T17:15:20.016Z,22.50
2022-09-13T17:16:20.177Z,22.50
2022-09-13T17:17:20.044Z,16.88
2022-09-13T17:18:20.048Z,16.88
2022-09-13T17:19:20.062Z,16.88
2022-09-13T17:20:20.068Z,16.88
2022-09-13T17:21:20.080Z,16.88
2022-09-13T17:22:20.092Z,16.88
2022-09-13T17:23:20.101Z,16.88
2022-09-13T17:24:20.111Z,11.25
2022-09-13T17:25:20.129Z,11.25
2022-09-13T17:26:20.159Z,5.63
2022-09-13T17:27:20.153Z,5.63
2022-09-13T17:28:20.157Z,5.63
2022-09-13T17:29:20.165Z,5.63
2022-09-13T17:30:20.176Z,5.63
2022-09-13T17:31:20.236Z,5.63
2022-09-13T17:32:20.206Z,0.00
2022-09-13T17:33:20.209Z,0.00
2022-09-13T17:34:20.219Z,0.00
2022-09-13T17:35:20.236Z,0.00
2022-09-13T17:36:20.249Z,0.00
2022-09-13T17:37:20.259Z,0.00
2022-09-13T17:38:20.262Z,0.00
2022-09-13T17:39:20.280Z,0.00
2022-09-13T17:40:20.355Z,0.00
2022-09-13T17:41:20.301Z,0.00
2022-09-13T17:42:23.359Z,0.00
2022-09-13T17:43:20.315Z,0.00
2022-09-13T17:44:20.334Z,0.00
2022-09-13T17:45:20.337Z,0.00
2022-09-13T17:46:20.400Z,0.00
2022-09-13T17:47:20.358Z,0.00
2022-09-13T17:48:20.369Z,0.00
2022-09-13T17:49:20.403Z,0.00
2022-09-13T17:50:20.389Z,0.00
2022-09-13T17:51:20.401Z,0.00
2022-09-13T17:52:20.417Z,0.00
2022-09-13T17:53:20.429Z,0.00
2022-09-13T17:54:20.431Z,0.00
2022-09-13T17:55:20.451Z,0.00
2022-09-13T17:56:20.456Z,0.00
2022-09-13T17:57:20.465Z,0.00
2022-09-13T17:58:20.514Z,0.00
2022-09-13T17:59:20.498Z,0.00
2022-09-13T18:00:20.505Z,0.00
2022-09-13T18:01:20.556Z,0.00
2022-09-13T18:02:20.610Z,0.00
2022-09-13T18:03:20.532Z,0.00
2022-09-13T18:04:20.545Z,0.00
2022-09-13T18:05:20.548Z,0.00
2022-09-13T18:06:20.558Z,0.00
2022-09-13T18:07:20.569Z,0.00
2022-09-13T18:08:20.588Z,0.00
2022-09-13T18:09:20.592Z,0.00
2022-09-13T18:10:48.830Z,0.00
2022-09-13T18:11:22.442Z,0.00
2022-09-13T18:12:20.621Z,0.00
2022-09-13T18:13:20.632Z,0.00
2022-09-13T18:14:20.762Z,0.00
2022-09-13T18:15:20.653Z,0.00
2022-09-13T18:16:21.634Z,0.00
2022-09-13T18:17:20.683Z,0.00
2022-09-13T18:18:20.693Z,0.00
2022-09-13T18:19:33.914Z,0.00
2022-09-13T18:20:20.711Z,0.00
2022-09-13T18:21:20.725Z,0.00
2022-09-13T18:22:20.724Z,0.00
2022-09-13T18:23:20.738Z,0.00
2022-09-13T18:24:20.755Z,0.00
2022-09-13T18:25:20.763Z,0.00
2022-09-13T18:26:20.776Z,0.00
2022-09-13T18:27:20.784Z,0.00
2022-09-13T18:28:20.787Z,0.00
2022-09-13T18:29:20.800Z,0.00
2022-09-13T18:30:20.836Z,0.00
2022-09-13T18:31:20.896Z,0.00
2022-09-13T18:32:20.836Z,0.00
2022-09-13T18:33:20.845Z,0.00
2022-09-13T18:34:24.594Z,0.00
2022-09-13T18:35:20.863Z,0.00
2022-09-13T18:36:20.879Z,0.00
2022-09-13T18:37:20.907Z,0.00
2022-09-13T18:38:20.898Z,0.00
2022-09-13T18:39:20.909Z,0.00
2022-09-13T18:40:20.980Z,0.00
2022-09-13T18:41:20.921Z,0.00
2022-09-13T18:42:20.930Z,0.00
2022-09-13T18:43:20.941Z,0.00
2022-09-13T18:44:20.961Z,0.00
2022-09-13T18:45:20.968Z,0.00
2022-09-13T18:46:21.078Z,0.00
2022-09-13T18:47:20.983Z,0.00
2022-09-13T18:48:21.000Z,0.00
2022-09-13T18:49:21.008Z,0.00
2022-09-13T18:50:21.014Z,0.00
2022-09-13T18:51:21.028Z,0.00
2022-09-13T18:52:21.040Z,0.00
2022-09-13T18:53:31.747Z,0.00
2022-09-13T18:54:21.060Z,0.00
2022-09-13T18:55:21.063Z,0.00
2022-09-13T18:56:21.074Z,0.00
2022-09-13T18:57:21.082Z,0.00
2022-09-13T18:58:21.094Z,0.00
2022-09-13T18:59:21.105Z,0.00
2022-09-13T19:00:21.122Z,0.00
2022-09-13T19:01:21.239Z,0.00
2022-09-13T19:02:21.313Z,0.00
2022-09-13T19:03:21.403Z,0.00
2022-09-13T19:04:21.153Z,0.00
2022-09-13T19:05:21.165Z,0.00
2022-09-13T19:06:21.180Z,0.00
2022-09-13T19:07:21.183Z,0.00
2022-09-13T19:08:21.201Z,0.00
2022-09-13T19:09:21.245Z,0.00
2022-09-13T19:10:21.223Z,0.00
2022-09-13T19:11:44.874Z,0.00
2022-09-13T19:13:03.788Z,0.00
2022-09-13T19:14:03.799Z,0.00
2022-09-13T19:15:03.808Z,0.00
2022-09-13T19:16:03.888Z,0.00
2022-09-13T19:17:03.827Z,0.00
2022-09-13T19:18:03.851Z,0.00
2022-09-13T19:19:03.850Z,0.00
2022-09-13T19:20:03.849Z,0.00
2022-09-13T19:21:03.868Z,0.00
2022-09-13T19:22:03.879Z,0.00
2022-09-13T19:23:03.884Z,0.00
2022-09-13T19:24:09.183Z,0.00
2022-09-13T19:25:03.908Z,0.00
2022-09-13T19:26:03.919Z,0.00
2022-09-13T19:27:03.920Z,0.00
2022-09-13T19:28:03.936Z,0.00
2022-09-13T19:29:03.941Z,0.00
2022-09-13T19:30:03.949Z,0.00
2022-09-13T19:31:04.039Z,0.00
2022-09-13T19:32:03.971Z,0.00
2022-09-13T19:33:03.987Z,0.00
2022-09-13T19:34:04.097Z,0.00
2022-09-13T19:35:04.008Z,0.00
2022-09-13T19:36:04.016Z,0.00
2022-09-13T19:37:04.019Z,0.00
2022-09-13T19:38:04.029Z,0.00
2022-09-13T19:39:04.058Z,0.00
2022-09-13T19:40:04.143Z,0.00
2022-09-13T19:41:04.058Z,0.00
2022-09-13T19:42:04.078Z,0.00
2022-09-13T19:43:04.090Z,0.00
2022-09-13T19:44:04.087Z,0.00
2022-09-13T19:45:04.113Z,0.00
2022-09-13T19:46:04.164Z,0.00
2022-09-13T19:49:04.141Z,0.00
2022-09-13T19:50:04.175Z,0.00
2022-09-13T19:51:04.165Z,0.00
2022-09-13T19:52:04.173Z,0.00
2022-09-13T19:53:04.176Z,0.00
2022-09-13T19:54:04.216Z,0.00
2022-09-13T19:55:04.194Z,0.00
2022-09-13T19:56:04.203Z,0.00
2022-09-13T19:57:04.213Z,0.00
2022-09-13T19:58:04.225Z,0.00
2022-09-13T19:59:04.235Z,0.00
2022-09-13T20:00:04.247Z,0.00
2022-09-13T20:01:04.327Z,0.00
2022-09-13T20:02:04.270Z,0.00
2022-09-13T20:03:04.279Z,0.00
2022-09-13T20:04:04.281Z,0.00
2022-09-13T20:05:04.352Z,0.00
2022-09-13T20:06:04.319Z,0.00
2022-09-13T20:07:04.311Z,0.00
2022-09-13T20:08:04.328Z,0.00
2022-09-13T20:09:04.337Z,0.00
2022-09-13T20:10:04.366Z,0.00
2022-09-13T20:11:04.357Z,0.00
2022-09-13T20:12:04.367Z,0.00
2022-09-13T20:13:04.369Z,0.00
2022-09-13T20:14:04.383Z,0.00
2022-09-13T20:15:04.386Z,0.00
2022-09-13T20:16:04.468Z,0.00
2022-09-13T20:17:04.812Z,0.00
2022-09-13T20:18:04.415Z,0.00
2022-09-13T20:19:18.306Z,0.00
2022-09-13T20:20:04.436Z,0.00
2022-09-13T20:21:04.450Z,0.00
2022-09-13T20:22:04.558Z,0.00
2022-09-13T20:23:05.279Z,0.00
2022-09-13T20:24:04.480Z,0.00
2022-09-13T20:25:04.491Z,0.00
2022-09-13T20:26:04.498Z,0.00
2022-09-13T20:27:04.520Z,0.00
2022-09-13T20:28:04.518Z,0.00
2022-09-13T20:29:04.522Z,0.00
2022-09-13T20:30:04.531Z,0.00
2022-09-13T20:31:04.637Z,0.00
2022-09-13T20:32:04.548Z,0.00
2022-09-13T20:33:04.560Z,0.00
2022-09-13T20:34:04.568Z,0.00
2022-09-13T20:35:04.586Z,0.00
2022-09-13T20:36:04.588Z,0.00
2022-09-13T20:37:04.596Z,0.00
2022-09-13T20:38:04.626Z,0.00
2022-09-13T20:39:04.626Z,0.00
2022-09-13T20:40:04.683Z,0.00
2022-09-13T20:41:04.644Z,0.00
2022-09-13T20:42:04.651Z,0.00
2022-09-13T20:43:04.665Z,0.00
2022-09-13T20:44:04.675Z,0.00
2022-09-13T20:45:04.675Z,0.00
2022-09-13T20:46:04.739Z,0.00
2022-09-13T20:47:04.693Z,0.00
2022-09-13T20:48:04.709Z,0.00
2022-09-13T20:49:04.717Z,0.00
2022-09-13T20:50:04.724Z,0.00
2022-09-13T20:51:04.737Z,0.00
2022-09-13T20:52:04.740Z,0.00
2022-09-13T20:53:04.749Z,0.00
2022-09-13T20:54:04.786Z,0.00
2022-09-13T20:55:04.775Z,0.00
2022-09-13T20:56:04.779Z,0.00
2022-09-13T20:57:04.793Z,0.00
2022-09-13T20:58:04.805Z,0.00
2022-09-13T20:59:04.818Z,0.00
2022-09-13T21:00:04.814Z,0.00
2022-09-13T21:01:04.915Z,0.00
2022-09-13T21:02:04.970Z,0.00
2022-09-13T21:03:04.844Z,0.00
2022-09-13T21:04:04.860Z,0.00
2022-09-13T21:05:38.282Z,0.00
2022-09-13T21:06:04.878Z,0.00
2022-09-13T21:07:04.881Z,0.00
2022-09-13T21:08:04.891Z,0.00
2022-09-13T21:09:04.907Z,0.00
2022-09-13T21:10:05.017Z,0.00
2022-09-13T21:11:04.921Z,0.00
2022-09-13T21:12:04.929Z,0.00
2022-09-13T21:13:04.951Z,0.00
2022-09-13T21:14:04.963Z,0.00
2022-09-13T21:15:04.965Z,0.00
2022-09-13T21:16:04.973Z,0.00
2022-09-13T21:17:05.010Z,0.00
2022-09-13T21:18:04.991Z,0.00
2022-09-13T21:19:04.998Z,0.00
2022-09-13T21:20:05.001Z,0.00
2022-09-13T21:21:05.019Z,0.00
2022-09-13T21:22:05.026Z,0.00
2022-09-13T21:23:05.031Z,0.00
2022-09-13T21:24:05.046Z,0.00
2022-09-13T21:25:05.048Z,0.00
2022-09-13T21:26:05.084Z,0.00
2022-09-13T21:27:05.104Z,0.00
2022-09-13T21:28:05.082Z,0.00
2022-09-13T21:29:05.092Z,0.00
2022-09-13T21:30:05.103Z,0.00
2022-09-13T21:31:05.219Z,0.00
2022-09-13T21:32:05.117Z,0.00
2022-09-13T21:33:05.130Z,0.00
2022-09-13T21:34:05.135Z,0.00
2022-09-13T21:35:05.141Z,0.00
2022-09-13T21:36:05.147Z,0.00
2022-09-13T21:37:05.158Z,0.00
2022-09-13T21:38:05.174Z,0.00
2022-09-13T21:39:05.176Z,0.00
2022-09-13T21:40:05.280Z,0.00
2022-09-13T21:41:05.194Z,0.00
2022-09-13T21:42:05.230Z,0.00
2022-09-13T21:43:05.221Z,0.00
2022-09-13T21:44:05.221Z,0.00
2022-09-13T21:45:05.231Z,0.00
2022-09-13T21:46:05.311Z,0.00
2022-09-13T21:47:05.248Z,0.00
2022-09-13T21:48:05.265Z,0.00
2022-09-13T21:49:05.272Z,0.00
2022-09-13T21:50:05.282Z,0.00
2022-09-13T21:51:05.304Z,0.00
2022-09-13T21:52:05.293Z,0.00
2022-09-13T21:53:05.320Z,0.00
2022-09-13T21:54:05.310Z,0.00
2022-09-13T21:55:05.321Z,0.00
2022-09-13T21:56:05.338Z,0.00
2022-09-13T21:57:05.339Z,0.00
2022-09-13T21:58:05.462Z,0.00
2022-09-13T21:59:05.365Z,0.00
2022-09-13T22:00:05.504Z,0.00
2022-09-13T22:01:05.446Z,0.00
2022-09-13T22:02:05.457Z,0.00
2022-09-13T22:03:05.401Z,0.00
2022-09-13T22:04:05.409Z,0.00
2022-09-13T22:05:05.410Z,0.00
2022-09-13T22:06:05.426Z,0.00
2022-09-13T22:07:05.429Z,0.00
2022-09-13T22:08:05.446Z,0.00
2022-09-13T22:09:05.457Z,0.00
2022-09-13T22:10:05.539Z,0.00
2022-09-13T22:11:05.471Z,0.00
2022-09-13T22:12:05.474Z,0.00
2022-09-13T22:13:05.482Z,0.00
2022-09-13T22:14:05.608Z,0.00
2022-09-13T22:15:05.500Z,0.00
2022-09-13T22:16:05.511Z,0.00
2022-09-13T22:17:05.548Z,0.00
2022-09-13T22:18:05.534Z,0.00
2022-09-13T22:19:09.094Z,0.00
2022-09-13T22:20:05.553Z,0.00
2022-09-13T22:21:05.557Z,0.00
2022-09-13T22:22:05.572Z,0.00
2022-09-13T22:23:05.582Z,0.00
2022-09-13T22:24:05.581Z,0.00
2022-09-13T22:25:05.599Z,0.00
2022-09-13T22:26:05.608Z,0.00
2022-09-13T22:27:05.618Z,0.00
2022-09-13T22:28:05.615Z,0.00
2022-09-13T22:29:05.634Z,0.00
2022-09-13T22:30:05.662Z,0.00
2022-09-13T22:31:05.748Z,0.00
2022-09-13T22:32:05.665Z,0.00
2022-09-13T22:33:05.662Z,0.00
2022-09-13T22:34:05.676Z,0.00
2022-09-13T22:35:05.682Z,0.00
2022-09-13T22:36:05.694Z,0.00
2022-09-13T22:37:05.697Z,0.00
2022-09-13T22:38:05.713Z,0.00
2022-09-13T22:39:05.716Z,0.00
2022-09-13T22:40:05.772Z,0.00
2022-09-13T22:41:05.756Z,0.00
2022-09-13T22:42:05.749Z,0.00
2022-09-13T22:43:05.757Z,0.00
2022-09-13T22:44:05.760Z,0.00
2022-09-13T22:45:05.767Z,0.00
2022-09-13T22:46:05.955Z,0.00
2022-09-13T22:47:05.785Z,0.00
2022-09-13T22:48:08.455Z,0.00
2022-09-13T22:49:05.808Z,0.00
2022-09-13T22:50:05.820Z,0.00
2022-09-13T22:51:05.829Z,0.00
2022-09-13T22:52:05.830Z,0.00
2022-09-13T22:53:05.838Z,0.00
2022-09-13T22:54:07.365Z,0.00
2022-09-13T22:55:05.865Z,0.00
2022-09-13T22:56:05.866Z,0.00
2022-09-13T22:57:05.873Z,0.00
2022-09-13T22:58:05.892Z,0.00
2022-09-13T22:59:05.901Z,0.00
2022-09-13T23:00:05.907Z,0.00
2022-09-13T23:01:05.936Z,0.00
2022-09-13T23:02:06.030Z,0.00
2022-09-13T23:03:05.928Z,0.00
2022-09-13T23:04:05.981Z,0.00
2022-09-13T23:05:05.946Z,0.00
2022-09-13T23:06:05.954Z,0.00
2022-09-13T23:07:05.963Z,0.00
2022-09-13T23:08:05.977Z,0.00
2022-09-13T23:09:05.988Z,0.00
2022-09-13T23:10:05.988Z,0.00
2022-09-13T23:11:06.001Z,0.00
2022-09-13T23:12:06.006Z,0.00
2022-09-13T23:13:06.015Z,0.00
2022-09-13T23:14:06.023Z,0.00
2022-09-13T23:15:06.033Z,0.00
2022-09-13T23:16:06.133Z,0.00
2022-09-13T23:17:06.138Z,0.00
2022-09-13T23:18:06.086Z,0.00
2022-09-13T23:19:06.075Z,0.00
2022-09-13T23:20:06.076Z,0.00
2022-09-13T23:21:06.091Z,0.00
2022-09-13T23:22:06.094Z,0.00
2022-09-13T23:23:06.102Z,0.00
2022-09-13T23:24:06.112Z,0.00
2022-09-13T23:25:06.120Z,0.00
2022-09-13T23:26:06.134Z,0.00
2022-09-13T23:27:06.146Z,0.00
2022-09-13T23:28:06.151Z,0.00
2022-09-13T23:29:06.165Z,0.00
2022-09-13T23:30:06.162Z,0.00
2022-09-13T23:31:06.173Z,0.00
2022-09-13T23:32:06.219Z,0.00
2022-09-13T23:33:06.188Z,0.00
2022-09-13T23:34:06.223Z,0.00
2022-09-13T23:35:06.214Z,0.00
2022-09-13T23:36:06.228Z,0.00
2022-09-13T23:37:06.222Z,0.00
2022-09-13T23:38:06.234Z,0.00
2022-09-13T23:39:06.241Z,0.00
2022-09-13T23:40:06.299Z,0.00
2022-09-13T23:41:06.267Z,0.00
2022-09-13T23:42:06.274Z,0.00
2022-09-13T23:43:06.289Z,0.00
2022-09-13T23:44:06.288Z,0.00
2022-09-13T23:45:06.293Z,0.00
2022-09-13T23:46:06.439Z,0.00
2022-09-13T23:47:06.311Z,0.00
2022-09-13T23:48:06.323Z,0.00
2022-09-13T23:49:06.327Z,0.00
2022-09-13T23:50:06.359Z,0.00
2022-09-13T23:51:06.353Z,0.00
2022-09-13T23:52:06.360Z,0.00
2022-09-13T23:53:06.370Z,0.00
2022-09-13T23:54:06.371Z,0.00
2022-09-13T23:55:06.381Z,0.00
2022-09-13T23:56:06.393Z,0.00
2022-09-13T23:57:06.404Z,0.00
2022-09-13T23:58:06.412Z,0.00
2022-09-13T23:59:06.448Z,0.00
